createdAt,value
2019-01-20T00:00:19.241Z,14.8
2019-01-20T00:02:18.868Z,18.4
2019-01-20T00:04:19.492Z,16.6
2019-01-20T00:06:18.836Z,18.6
2019-01-20T00:08:19.468Z,23.4
2019-01-20T00:10:18.585Z,15.5
2019-01-20T00:12:19.238Z,13.3
2019-01-20T00:14:18.872Z,14.7
2019-01-20T00:16:19.148Z,24.9
2019-01-20T00:18:18.861Z,12.2
2019-01-20T00:20:19.681Z,17.5
2019-01-20T00:22:19.350Z,17.8
2019-01-20T00:24:19.012Z,17.3
2019-01-20T00:26:18.917Z,16.7
2019-01-20T00:28:19.543Z,16
2019-01-20T00:30:19.176Z,16.9
2019-01-20T00:32:18.818Z,18
2019-01-20T00:34:19.606Z,19
2019-01-20T00:36:18.892Z,16.1
2019-01-20T00:38:19.522Z,13.2
2019-01-20T00:40:18.639Z,12
2019-01-20T00:42:19.297Z,11.2
2019-01-20T00:44:18.944Z,12.9
2019-01-20T00:46:19.117Z,11.7
2019-01-20T00:48:18.753Z,13.6
2019-01-20T00:50:19.484Z,14.4
2019-01-20T00:52:19.103Z,16.3
2019-01-20T00:54:18.761Z,10.7
2019-01-20T00:56:19.254Z,15.8
2019-01-20T00:58:18.863Z,20.5
2019-01-20T01:00:21.738Z,15.3
2019-01-20T01:02:19.346Z,14.5
2019-01-20T01:04:18.973Z,10.5
2019-01-20T01:06:19.315Z,20.4
2019-01-20T01:08:18.933Z,23.3
2019-01-20T01:10:19.020Z,18.4
2019-01-20T01:12:18.663Z,12.8
2019-01-20T01:14:19.298Z,15.7
2019-01-20T01:16:18.759Z,16.3
2019-01-20T01:18:19.455Z,17.8
2019-01-20T01:20:19.121Z,14.4
2019-01-20T01:22:18.756Z,12.8
2019-01-20T01:24:19.412Z,14.8
2019-01-20T01:26:19.273Z,13.3
2019-01-20T01:28:18.906Z,16.3
2019-01-20T01:30:19.587Z,11.2
2019-01-20T01:32:19.232Z,15.7
2019-01-20T01:34:18.857Z,17.2
2019-01-20T01:36:19.171Z,15.3
2019-01-20T01:38:18.798Z,14.7
2019-01-20T01:40:18.870Z,14.2
2019-01-20T01:42:19.505Z,13
2019-01-20T01:44:19.156Z,11.6
2019-01-20T01:46:19.490Z,20.9
2019-01-20T01:48:19.134Z,10.8
2019-01-20T01:50:18.784Z,19.8
2019-01-20T01:52:19.434Z,17
2019-01-20T01:54:19.102Z,11.2
2019-01-20T01:56:19.390Z,15.3
2019-01-20T01:58:19.015Z,12.7
2019-01-20T02:00:18.644Z,21.2
2019-01-20T02:02:19.263Z,15.9
2019-01-20T02:04:18.906Z,12
2019-01-20T02:06:18.705Z,17.5
2019-01-20T02:08:19.319Z,17.1
2019-01-20T02:10:19.395Z,18.6
2019-01-20T02:12:19.045Z,11.8
2019-01-20T02:14:18.690Z,15.5
2019-01-20T02:16:18.964Z,13.3
2019-01-20T02:18:18.698Z,10.2
2019-01-20T02:20:19.393Z,12.9
2019-01-20T02:22:19.032Z,15.9
2019-01-20T02:24:18.649Z,14.4
2019-01-20T02:26:18.854Z,25.7
2019-01-20T02:28:19.471Z,14.3
2019-01-20T02:30:19.305Z,18.8
2019-01-20T02:32:18.989Z,10.9
2019-01-20T02:34:18.599Z,14.8
2019-01-20T02:36:19.463Z,11.8
2019-01-20T02:38:19.086Z,14
2019-01-20T02:40:19.210Z,14.7
2019-01-20T02:42:19.557Z,16.1
2019-01-20T02:44:19.192Z,18.8
2019-01-20T02:46:19.525Z,15.8
2019-01-20T02:48:19.155Z,12.6
2019-01-20T02:50:18.815Z,14.2
2019-01-20T02:52:19.230Z,12.3
2019-01-20T02:54:18.840Z,16.5
2019-01-20T02:56:19.073Z,13.4
2019-01-20T02:58:18.710Z,16
2019-01-20T03:00:19.374Z,19
2019-01-20T03:02:18.982Z,14.5
2019-01-20T03:04:18.632Z,16.4
2019-01-20T03:06:19.455Z,21.2
2019-01-20T03:08:19.089Z,14.2
2019-01-20T03:10:19.185Z,11.9
2019-01-20T03:12:18.832Z,10
2019-01-20T03:14:19.461Z,11.8
2019-01-20T03:16:18.699Z,16.7
2019-01-20T03:18:19.378Z,15.8
2019-01-20T03:20:19.017Z,14.4
2019-01-20T03:22:18.653Z,15
2019-01-20T03:24:19.264Z,14.9
2019-01-20T03:26:19.539Z,22.4
2019-01-20T03:28:19.154Z,15.6
2019-01-20T03:30:18.811Z,17.3
2019-01-20T03:32:19.562Z,12
2019-01-20T03:34:19.210Z,20.2
2019-01-20T03:36:19.519Z,12.5
2019-01-20T03:38:19.152Z,18.9
2019-01-20T03:40:19.317Z,16.9
2019-01-20T03:42:18.934Z,12.9
2019-01-20T03:44:19.553Z,15.9
2019-01-20T03:46:18.803Z,14
2019-01-20T03:48:19.439Z,14.5
2019-01-20T03:50:19.048Z,13.2
2019-01-20T03:52:18.669Z,12.9
2019-01-20T03:54:19.293Z,20
2019-01-20T03:56:18.721Z,10.9
2019-01-20T03:58:19.331Z,25.9
2019-01-20T04:00:18.946Z,23.4
2019-01-20T04:02:18.559Z,11.7
2019-01-20T04:04:19.182Z,17.8
2019-01-20T04:06:18.988Z,12.2
2019-01-20T04:08:18.617Z,17.9
2019-01-20T04:10:18.688Z,18.4
2019-01-20T04:12:21.154Z,16.9
2019-01-20T04:14:18.791Z,14.7
2019-01-20T04:16:18.589Z,14.6
2019-01-20T04:18:19.317Z,15
2019-01-20T04:20:18.992Z,12.9
2019-01-20T04:22:18.610Z,15.9
2019-01-20T04:24:19.235Z,16.4
2019-01-20T04:26:19.032Z,10.4
2019-01-20T04:28:18.688Z,10.9
2019-01-20T04:30:19.332Z,19.3
2019-01-20T04:32:18.937Z,13.9
2019-01-20T04:34:19.553Z,16.8
2019-01-20T04:36:19.358Z,15.5
2019-01-20T04:38:18.982Z,21.2
2019-01-20T04:40:19.037Z,10.2
2019-01-20T04:42:18.671Z,16.5
2019-01-20T04:44:19.275Z,10.9
2019-01-20T04:46:19.078Z,15
2019-01-20T04:48:18.706Z,11.7
2019-01-20T04:50:19.341Z,8.9
2019-01-20T04:52:18.972Z,11.4
2019-01-20T04:54:18.596Z,16.1
2019-01-20T04:56:18.980Z,20.3
2019-01-20T04:58:18.618Z,15
2019-01-20T05:00:19.304Z,17.8
2019-01-20T05:02:18.935Z,12.3
2019-01-20T05:04:19.569Z,13.4
2019-01-20T05:06:19.486Z,15.6
2019-01-20T05:08:19.084Z,19.6
2019-01-20T05:10:19.177Z,9.3
2019-01-20T05:12:18.819Z,18.2
2019-01-20T05:14:19.445Z,12.9
2019-01-20T05:16:19.306Z,13.4
2019-01-20T05:18:19.032Z,19.8
2019-01-20T05:20:18.709Z,18.4
2019-01-20T05:22:19.304Z,15.5
2019-01-20T05:24:18.898Z,16.3
2019-01-20T05:26:19.175Z,16.4
2019-01-20T05:28:18.796Z,10.2
2019-01-20T05:30:19.461Z,10.9
2019-01-20T05:32:19.109Z,10
2019-01-20T05:34:18.724Z,11.2
2019-01-20T05:36:19.086Z,12.5
2019-01-20T05:38:18.691Z,9.5
2019-01-20T05:40:18.917Z,16.9
2019-01-20T05:42:19.517Z,14.6
2019-01-20T05:44:19.162Z,19.4
2019-01-20T05:46:18.987Z,14.5
2019-01-20T05:48:18.667Z,26
2019-01-20T05:50:19.298Z,11
2019-01-20T05:52:18.922Z,13.4
2019-01-20T05:54:19.554Z,12.9
2019-01-20T05:56:18.808Z,28.5
2019-01-20T05:58:19.429Z,13.4
2019-01-20T06:00:19.058Z,13.7
2019-01-20T06:02:18.680Z,9.3
2019-01-20T06:04:19.318Z,16.3
2019-01-20T06:06:19.173Z,11.7
2019-01-20T06:08:18.775Z,14.7
2019-01-20T06:10:18.833Z,16.3
2019-01-20T06:12:19.441Z,11.7
2019-01-20T06:14:19.066Z,12.5
2019-01-20T06:16:19.393Z,17.4
2019-01-20T06:18:19.067Z,20.7
2019-01-20T06:20:18.711Z,16.1
2019-01-20T06:22:19.349Z,15.6
2019-01-20T06:24:18.971Z,15.4
2019-01-20T06:26:18.847Z,11.1
2019-01-20T06:28:19.469Z,14.8
2019-01-20T06:30:19.124Z,14.1
2019-01-20T06:32:18.741Z,10.9
2019-01-20T06:34:19.353Z,15.6
2019-01-20T06:36:19.096Z,11.7
2019-01-20T06:38:18.713Z,13.4
2019-01-20T06:40:18.801Z,13.4
2019-01-20T06:42:19.422Z,16.1
2019-01-20T06:44:19.018Z,13.2
2019-01-20T06:46:18.800Z,14.4
2019-01-20T06:48:19.530Z,21.4
2019-01-20T06:50:19.302Z,16.3
2019-01-20T06:52:18.964Z,16.1
2019-01-20T06:54:18.593Z,16
2019-01-20T06:56:18.818Z,16.5
2019-01-20T06:58:19.421Z,20.3
2019-01-20T07:00:19.067Z,12.8
2019-01-20T07:02:18.670Z,18.2
2019-01-20T07:04:19.286Z,6
2019-01-20T07:06:19.029Z,15.1
2019-01-20T07:08:18.626Z,16.7
2019-01-20T07:10:18.801Z,13.2
2019-01-20T07:12:19.406Z,26.4
2019-01-20T07:14:19.023Z,15.2
2019-01-20T07:16:19.328Z,12.8
2019-01-20T07:18:19.007Z,16.4
2019-01-20T07:20:18.622Z,13.9
2019-01-20T07:22:19.227Z,11.8
2019-01-20T07:24:18.864Z,21.3
2019-01-20T07:26:18.631Z,21.2
2019-01-20T07:28:19.262Z,14
2019-01-20T07:30:18.875Z,13.4
2019-01-20T07:32:19.477Z,26.3
2019-01-20T07:34:19.076Z,20.7
2019-01-20T07:36:19.547Z,17.1
2019-01-20T07:38:19.183Z,15.1
2019-01-20T07:40:19.369Z,12.3
2019-01-20T07:42:19.003Z,22.2
2019-01-20T07:44:18.613Z,17.7
2019-01-20T07:46:18.859Z,14.3
2019-01-20T07:48:19.488Z,20.4
2019-01-20T07:50:19.154Z,18
2019-01-20T07:52:18.774Z,17.4
2019-01-20T07:54:19.411Z,13.4
2019-01-20T07:56:18.696Z,18.3
2019-01-20T07:58:19.339Z,12.2
2019-01-20T08:00:18.958Z,20.4
2019-01-20T08:02:18.568Z,25.2
2019-01-20T08:04:19.185Z,19
2019-01-20T08:06:18.944Z,16.7
2019-01-20T08:08:18.551Z,15.4
2019-01-20T08:10:18.633Z,21.6
2019-01-20T08:12:23.770Z,20.4
2019-01-20T08:14:19.421Z,19.8
2019-01-20T08:16:18.649Z,16.5
2019-01-20T08:18:19.339Z,18.5
2019-01-20T08:20:18.966Z,25.3
2019-01-20T08:22:18.601Z,23.2
2019-01-20T08:24:19.220Z,24.7
2019-01-20T08:26:19.469Z,24.1
2019-01-20T08:28:19.115Z,15.2
2019-01-20T08:30:18.781Z,16.3
2019-01-20T08:32:19.400Z,23
2019-01-20T08:34:19.031Z,29.2
2019-01-20T08:36:19.292Z,26
2019-01-20T08:38:18.931Z,24.2
2019-01-20T08:40:19.047Z,26.8
2019-01-20T08:42:18.689Z,27.5
2019-01-20T08:44:19.308Z,26.8
2019-01-20T08:46:18.612Z,29.8
2019-01-20T08:48:19.235Z,26.5
2019-01-20T08:50:18.887Z,22.3
2019-01-20T08:52:19.493Z,30
2019-01-20T08:54:19.114Z,28.5
2019-01-20T08:56:18.746Z,20.9
2019-01-20T08:58:19.387Z,28.9
2019-01-20T09:00:19.034Z,32.9
2019-01-20T09:02:18.647Z,32.6
2019-01-20T09:04:19.263Z,29.4
2019-01-20T09:06:18.567Z,33.7
2019-01-20T09:08:19.213Z,29.1
2019-01-20T09:10:19.269Z,37
2019-01-20T09:12:18.900Z,37
2019-01-20T09:14:19.561Z,25.8
2019-01-20T09:16:18.841Z,27.1
2019-01-20T09:18:19.527Z,27.5
2019-01-20T09:20:19.169Z,32.5
2019-01-20T09:22:18.794Z,36.7
2019-01-20T09:24:19.419Z,30.8
2019-01-20T09:26:18.668Z,25.2
2019-01-20T09:28:19.300Z,33.1
2019-01-20T09:30:18.971Z,29.8
2019-01-20T09:32:18.587Z,35.2
2019-01-20T09:34:19.221Z,29.4
2019-01-20T09:36:19.522Z,30.3
2019-01-20T09:38:19.191Z,34.9
2019-01-20T09:40:19.323Z,30.4
2019-01-20T09:42:18.934Z,28.3
2019-01-20T09:44:19.550Z,25
2019-01-20T09:46:19.056Z,31
2019-01-20T09:48:18.702Z,32.4
2019-01-20T09:50:19.334Z,44.2
2019-01-20T09:52:18.996Z,28.6
2019-01-20T09:54:18.611Z,40.9
2019-01-20T09:56:18.857Z,32.7
2019-01-20T09:58:19.647Z,38.1
2019-01-20T10:00:19.387Z,28.1
2019-01-20T10:02:19.001Z,41.5
2019-01-20T10:04:18.606Z,30
2019-01-20T10:06:18.975Z,27.4
2019-01-20T10:08:18.597Z,34.6
2019-01-20T10:10:18.704Z,32
2019-01-20T10:12:19.346Z,31.2
2019-01-20T10:14:18.973Z,32.4
2019-01-20T10:16:19.276Z,34
2019-01-20T10:18:18.976Z,34.5
2019-01-20T10:20:18.648Z,26
2019-01-20T10:22:19.280Z,38.3
2019-01-20T10:24:18.900Z,43.2
2019-01-20T10:26:19.133Z,34.1
2019-01-20T10:28:18.733Z,31
2019-01-20T10:30:19.377Z,34.6
2019-01-20T10:32:19.037Z,28
2019-01-20T10:34:18.677Z,35.7
2019-01-20T10:36:19.517Z,31.3
2019-01-20T10:38:19.165Z,27.6
2019-01-20T10:40:19.272Z,33.8
2019-01-20T10:42:18.942Z,37.7
2019-01-20T10:44:18.579Z,36.3
2019-01-20T10:46:19.420Z,34.4
2019-01-20T10:48:19.071Z,33.3
2019-01-20T10:50:18.726Z,28.8
2019-01-20T10:52:19.354Z,37.8
2019-01-20T10:54:18.972Z,35.5
2019-01-20T10:56:18.730Z,24.1
2019-01-20T10:58:19.343Z,25.9
2019-01-20T11:00:19.003Z,39.4
2019-01-20T11:02:18.627Z,28.7
2019-01-20T11:04:19.322Z,23.7
2019-01-20T11:06:19.159Z,38.9
2019-01-20T11:08:18.793Z,31.2
2019-01-20T11:10:18.880Z,26.4
2019-01-20T11:12:19.503Z,25.5
2019-01-20T11:14:19.142Z,33.1
2019-01-20T11:16:18.949Z,25.9
2019-01-20T11:18:18.669Z,25.8
2019-01-20T11:20:19.312Z,23.3
2019-01-20T11:22:18.946Z,28.4
2019-01-20T11:24:18.586Z,27
2019-01-20T11:26:18.850Z,27.2
2019-01-20T11:28:19.476Z,32.9
2019-01-20T11:30:19.133Z,24.3
2019-01-20T11:32:18.762Z,31.5
2019-01-20T11:34:19.377Z,22.4
2019-01-20T11:36:18.617Z,26.4
2019-01-20T11:38:19.239Z,27.5
2019-01-20T11:40:19.357Z,29.4
2019-01-20T11:42:19.012Z,29.9
2019-01-20T11:44:18.644Z,27
2019-01-20T11:46:18.925Z,28.5
2019-01-20T11:48:19.571Z,22
2019-01-20T11:50:19.230Z,24.1
2019-01-20T11:52:18.871Z,25.1
2019-01-20T11:54:19.517Z,20.1
2019-01-20T11:56:19.531Z,19.7
2019-01-20T11:58:19.170Z,20.5
2019-01-20T12:00:18.817Z,17.7
2019-01-20T12:02:22.781Z,19.4
2019-01-20T12:04:19.420Z,27
2019-01-20T12:06:18.670Z,18
2019-01-20T12:08:19.294Z,19.9
2019-01-20T12:10:19.384Z,17.9
2019-01-20T12:12:19.017Z,23.5
2019-01-20T12:14:24.475Z,17.4
2019-01-20T12:16:19.273Z,18.2
2019-01-20T12:18:18.957Z,20.6
2019-01-20T12:20:18.591Z,16.3
2019-01-20T12:22:19.227Z,21
2019-01-20T12:24:19.703Z,26.7
2019-01-20T12:26:19.001Z,21.4
2019-01-20T12:28:18.625Z,21.6
2019-01-20T12:30:19.299Z,19.7
2019-01-20T12:32:18.927Z,17
2019-01-20T12:34:19.566Z,18.2
2019-01-20T12:36:18.807Z,18.9
2019-01-20T12:38:19.440Z,18.6
2019-01-20T12:40:19.557Z,17.9
2019-01-20T12:42:19.198Z,17.7
2019-01-20T12:44:18.867Z,20.8
2019-01-20T12:46:18.718Z,16
2019-01-20T12:48:19.359Z,15.7
2019-01-20T12:50:19.009Z,12.9
2019-01-20T12:52:18.628Z,20.8
2019-01-20T12:54:19.273Z,17
2019-01-20T12:56:19.090Z,14.1
2019-01-20T12:58:18.784Z,23.7
2019-01-20T13:00:19.469Z,18.9
2019-01-20T13:02:19.084Z,14.6
2019-01-20T13:04:18.741Z,14.6
2019-01-20T13:06:19.059Z,18.4
2019-01-20T13:08:18.717Z,17.5
2019-01-20T13:10:18.836Z,15.3
2019-01-20T13:12:19.477Z,20.1
2019-01-20T13:14:19.117Z,12.7
2019-01-20T13:16:18.914Z,18.4
2019-01-20T13:18:18.645Z,12.9
2019-01-20T13:20:19.327Z,19.5
2019-01-20T13:22:18.990Z,16.6
2019-01-20T13:24:18.631Z,14.2
2019-01-20T13:26:18.887Z,18.3
2019-01-20T13:28:19.529Z,19
2019-01-20T13:30:19.238Z,16.5
2019-01-20T13:32:18.872Z,16.9
2019-01-20T13:34:19.524Z,15.8
2019-01-20T13:36:18.821Z,16.5
2019-01-20T13:38:19.452Z,13.4
2019-01-20T13:40:19.569Z,14.4
2019-01-20T13:42:19.228Z,17.5
2019-01-20T13:44:18.888Z,19.5
2019-01-20T13:46:19.274Z,16.3
2019-01-20T13:48:18.933Z,24.5
2019-01-20T13:50:18.598Z,15.4
2019-01-20T13:52:19.247Z,13.7
2019-01-20T13:54:18.883Z,16.9
2019-01-20T13:56:18.723Z,18.7
2019-01-20T13:58:19.369Z,13.4
2019-01-20T14:00:19.025Z,21.2
2019-01-20T14:02:18.651Z,15.6
2019-01-20T14:04:19.284Z,16.3
2019-01-20T14:06:19.562Z,13.5
2019-01-20T14:08:19.205Z,15.2
2019-01-20T14:10:19.305Z,17.1
2019-01-20T14:12:18.944Z,25.1
2019-01-20T14:14:18.610Z,16.7
2019-01-20T14:16:18.931Z,24.4
2019-01-20T14:18:18.662Z,18.5
2019-01-20T14:20:19.338Z,22.8
2019-01-20T14:22:18.982Z,19
2019-01-20T14:24:18.625Z,15.5
2019-01-20T14:26:18.867Z,22.7
2019-01-20T14:28:19.498Z,19.8
2019-01-20T14:30:19.172Z,25
2019-01-20T14:32:18.809Z,20.7
2019-01-20T14:34:19.475Z,27.5
2019-01-20T14:36:19.264Z,27.2
2019-01-20T14:38:18.881Z,27.9
2019-01-20T14:40:18.972Z,19.8
2019-01-20T14:42:18.626Z,21.9
2019-01-20T14:44:19.264Z,22.7
2019-01-20T14:46:19.092Z,18.2
2019-01-20T14:48:18.734Z,18
2019-01-20T14:50:19.396Z,25.1
2019-01-20T14:52:19.032Z,29.2
2019-01-20T14:54:18.662Z,29.7
2019-01-20T14:56:19.476Z,17.4
2019-01-20T14:58:19.107Z,24.3
2019-01-20T15:00:18.736Z,24.6
2019-01-20T15:02:19.405Z,27.2
2019-01-20T15:04:19.034Z,34.1
2019-01-20T15:06:19.390Z,30.3
2019-01-20T15:08:19.022Z,35.2
2019-01-20T15:10:19.144Z,33.5
2019-01-20T15:12:18.774Z,29.1
2019-01-20T15:14:19.409Z,32.1
2019-01-20T15:16:19.086Z,34.8
2019-01-20T15:18:18.818Z,43.8
2019-01-20T15:20:19.471Z,30.8
2019-01-20T15:22:19.118Z,35.6
2019-01-20T15:24:18.763Z,30.9
2019-01-20T15:26:19.003Z,31.8
2019-01-20T15:28:18.666Z,47.4
2019-01-20T15:30:19.340Z,34.8
2019-01-20T15:32:18.962Z,40.9
2019-01-20T15:34:18.625Z,45.7
2019-01-20T15:36:18.897Z,36
2019-01-20T15:38:19.529Z,35.9
2019-01-20T15:40:18.664Z,38.1
2019-01-20T15:42:19.311Z,48
2019-01-20T15:44:18.954Z,35.7
2019-01-20T15:46:18.774Z,32.3
2019-01-20T15:48:19.406Z,38.3
2019-01-20T15:50:19.046Z,35.9
2019-01-20T15:52:18.685Z,35.5
2019-01-20T15:54:19.330Z,34.4
2019-01-20T15:56:19.181Z,29.9
2019-01-20T15:58:18.831Z,38.8
2019-01-20T16:00:19.480Z,24.4
2019-01-20T16:02:19.126Z,28.4
2019-01-20T16:04:18.807Z,36.7
2019-01-20T16:06:18.633Z,40.1
2019-01-20T16:08:19.300Z,36.8
2019-01-20T16:10:19.386Z,36.6
2019-01-20T16:12:19.033Z,29.5
2019-01-20T16:14:18.677Z,33
2019-01-20T16:16:18.997Z,37.6
2019-01-20T16:18:18.737Z,31
2019-01-20T16:20:19.407Z,32.4
2019-01-20T16:22:19.056Z,36
2019-01-20T16:24:18.765Z,41.5
2019-01-20T16:26:19.067Z,30.1
2019-01-20T16:28:18.711Z,25
2019-01-20T16:30:19.374Z,31.9
2019-01-20T16:32:19.045Z,27.6
2019-01-20T16:34:19.417Z,26.2
2019-01-20T16:36:19.324Z,31.8
2019-01-20T16:38:18.993Z,31.7
2019-01-20T16:40:19.169Z,33
2019-01-20T16:42:18.809Z,33.3
2019-01-20T16:44:19.439Z,32.1
2019-01-20T16:46:18.732Z,34.2
2019-01-20T16:48:19.376Z,36.6
2019-01-20T16:50:19.028Z,29.2
2019-01-20T16:52:18.655Z,36.5
2019-01-20T16:54:19.291Z,31.9
2019-01-20T16:56:19.149Z,32
2019-01-20T16:58:18.808Z,37.5
2019-01-20T17:00:19.668Z,30.7
2019-01-20T17:02:19.315Z,36.8
2019-01-20T17:04:18.947Z,31
2019-01-20T17:06:19.246Z,36.5
2019-01-20T17:08:18.896Z,34.3
2019-01-20T17:10:19.133Z,38.1
2019-01-20T17:12:18.789Z,38.6
2019-01-20T17:14:19.445Z,38.8
2019-01-20T17:16:18.911Z,45.5
2019-01-20T17:18:18.637Z,28.8
2019-01-20T17:20:19.296Z,34.8
2019-01-20T17:22:18.938Z,33.4
2019-01-20T17:24:18.584Z,35.3
2019-01-20T17:26:18.960Z,30
2019-01-20T17:28:18.601Z,24.2
2019-01-20T17:30:19.276Z,40.5
2019-01-20T17:32:18.920Z,33.4
2019-01-20T17:34:19.568Z,35.4
2019-01-20T17:36:19.053Z,28.6
2019-01-20T17:38:18.707Z,30.1
2019-01-20T17:40:18.965Z,29.5
2019-01-20T17:42:18.612Z,32.4
2019-01-20T17:44:19.258Z,28.7
2019-01-20T17:46:19.558Z,27.3
2019-01-20T17:48:19.254Z,26.1
2019-01-20T17:50:18.952Z,28.9
2019-01-20T17:52:18.578Z,27
2019-01-20T17:54:19.224Z,33.2
2019-01-20T17:56:19.079Z,28.6
2019-01-20T17:58:18.752Z,24.9
2019-01-20T18:00:19.466Z,25.4
2019-01-20T18:02:19.119Z,25.7
2019-01-20T18:04:18.748Z,26.6
2019-01-20T18:06:19.563Z,29.7
2019-01-20T18:08:19.197Z,25.3
2019-01-20T18:10:19.330Z,28
2019-01-20T18:12:18.961Z,28.1
2019-01-20T18:14:18.611Z,20.1
2019-01-20T18:16:19.503Z,23.6
2019-01-20T18:18:19.242Z,31.8
2019-01-20T18:20:18.899Z,21.5
2019-01-20T18:22:19.595Z,19.4
2019-01-20T18:24:19.247Z,25.5
2019-01-20T18:26:18.864Z,21.8
2019-01-20T18:28:19.523Z,21.3
2019-01-20T18:30:19.291Z,33.6
2019-01-20T18:32:18.951Z,28.9
2019-01-20T18:34:18.595Z,22.7
2019-01-20T18:36:19.433Z,31.5
2019-01-20T18:38:19.081Z,31.8
2019-01-20T18:40:19.227Z,23.7
2019-01-20T18:42:18.879Z,33.3
2019-01-20T18:44:19.539Z,21.1
2019-01-20T18:46:18.805Z,26.4
2019-01-20T18:48:19.442Z,25.3
2019-01-20T18:50:19.133Z,36.6
2019-01-20T18:52:18.762Z,35.4
2019-01-20T18:54:19.425Z,35.1
2019-01-20T18:56:19.299Z,34
2019-01-20T18:58:18.988Z,31.5
2019-01-20T19:00:18.630Z,30.7
2019-01-20T19:02:19.293Z,35.5
2019-01-20T19:04:18.999Z,25.9
2019-01-20T19:06:19.412Z,33.2
2019-01-20T19:08:19.083Z,27.7
2019-01-20T19:10:19.268Z,26.2
2019-01-20T19:12:18.931Z,29.8
2019-01-20T19:14:19.578Z,38.9
2019-01-20T19:16:18.905Z,26.5
2019-01-20T19:18:19.533Z,26.9
2019-01-20T19:20:19.210Z,28.6
2019-01-20T19:22:18.867Z,28.4
2019-01-20T19:24:19.524Z,33.1
2019-01-20T19:26:18.838Z,31.5
2019-01-20T19:28:19.465Z,34.5
2019-01-20T19:30:19.191Z,25.4
2019-01-20T19:32:18.822Z,28.3
2019-01-20T19:34:19.463Z,37.7
2019-01-20T19:36:18.821Z,29.8
2019-01-20T19:38:19.466Z,31.1
2019-01-20T19:40:19.568Z,33.2
2019-01-20T19:42:19.218Z,34.5
2019-01-20T19:44:18.899Z,26.7
2019-01-20T19:46:18.749Z,26.3
2019-01-20T19:48:20.502Z,25.6
2019-01-20T19:50:19.169Z,30.5
2019-01-20T19:52:18.830Z,31.7
2019-01-20T19:54:19.457Z,35.4
2019-01-20T19:56:18.720Z,24.4
2019-01-20T19:58:19.370Z,27.5
2019-01-20T20:00:19.020Z,27
2019-01-20T20:02:18.665Z,31.7
2019-01-20T20:04:19.304Z,30.8
2019-01-20T20:06:19.133Z,28.4
2019-01-20T20:08:18.766Z,36.4
2019-01-20T20:10:18.859Z,25
2019-01-20T20:12:19.503Z,32.8
2019-01-20T20:14:19.155Z,33
2019-01-20T20:16:23.687Z,34.1
2019-01-20T20:18:19.415Z,32
2019-01-20T20:20:19.059Z,29.8
2019-01-20T20:22:18.703Z,40.4
2019-01-20T20:24:25.793Z,33.7
2019-01-20T20:26:19.184Z,31.2
2019-01-20T20:28:18.843Z,25.1
2019-01-20T20:30:19.521Z,25.7
2019-01-20T20:32:19.182Z,25.9
2019-01-20T20:34:18.825Z,30.2
2019-01-20T20:36:19.133Z,25.9
2019-01-20T20:38:18.791Z,28.5
2019-01-20T20:40:18.914Z,24.8
2019-01-20T20:42:19.559Z,30.4
2019-01-20T20:44:19.213Z,28.6
2019-01-20T20:46:19.559Z,32.2
2019-01-20T20:48:19.239Z,33
2019-01-20T20:50:18.889Z,28.9
2019-01-20T20:52:19.539Z,29.4
2019-01-20T20:54:19.209Z,27.9
2019-01-20T20:56:19.547Z,27.2
2019-01-20T20:58:19.218Z,26.6
2019-01-20T21:00:18.918Z,32.6
2019-01-20T21:02:19.605Z,26.7
2019-01-20T21:04:19.286Z,32.1
2019-01-20T21:06:19.172Z,29.5
2019-01-20T21:08:18.835Z,28.9
2019-01-20T21:10:19.019Z,26.8
2019-01-20T21:12:18.678Z,28.3
2019-01-20T21:14:19.364Z,29.7
2019-01-20T21:16:19.239Z,29.5
2019-01-20T21:18:18.959Z,33.7
2019-01-20T21:20:18.652Z,29.9
2019-01-20T21:22:19.297Z,25.4
2019-01-20T21:24:18.909Z,28.8
2019-01-20T21:26:18.769Z,28.6
2019-01-20T21:28:19.405Z,29.8
2019-01-20T21:30:19.108Z,26.7
2019-01-20T21:32:18.771Z,26.9
2019-01-20T21:34:19.409Z,27.8
2019-01-20T21:36:19.059Z,33.7
2019-01-20T21:38:18.685Z,31.6
2019-01-20T21:40:18.816Z,33.3
2019-01-20T21:42:19.463Z,25.2
2019-01-20T21:44:19.096Z,30.7
2019-01-20T21:46:18.899Z,24.3
2019-01-20T21:48:19.656Z,29.1
2019-01-20T21:50:19.361Z,28.3
2019-01-20T21:52:19.051Z,32.2
2019-01-20T21:54:18.704Z,37.1
2019-01-20T21:56:20.172Z,29.4
2019-01-20T21:58:18.821Z,29.2
2019-01-20T22:00:19.529Z,26.7
2019-01-20T22:02:19.171Z,40.9
2019-01-20T22:04:18.831Z,26.1
2019-01-20T22:06:19.136Z,30.8
2019-01-20T22:08:18.807Z,36.3
2019-01-20T22:10:18.947Z,32.4
2019-01-20T22:12:18.644Z,34.2
2019-01-20T22:14:19.297Z,28.8
2019-01-20T22:16:19.190Z,32.9
2019-01-20T22:18:18.920Z,27.3
2019-01-20T22:20:19.584Z,28.5
2019-01-20T22:22:19.258Z,35.8
2019-01-20T22:24:18.923Z,41.7
2019-01-20T22:26:18.772Z,27.8
2019-01-20T22:28:19.454Z,30.5
2019-01-20T22:30:19.134Z,29.6
2019-01-20T22:32:18.777Z,34.5
2019-01-20T22:34:19.434Z,22.9
2019-01-20T22:36:19.299Z,25.4
2019-01-20T22:38:18.938Z,26.9
2019-01-20T22:40:19.057Z,26.3
2019-01-20T22:42:18.703Z,35.5
2019-01-20T22:44:19.346Z,26.7
2019-01-20T22:46:18.716Z,32.6
2019-01-20T22:48:19.357Z,29.9
2019-01-20T22:50:19.164Z,31.2
2019-01-20T22:52:18.802Z,32.3
2019-01-20T22:54:19.418Z,31.6
2019-01-20T22:56:18.716Z,39.3
2019-01-20T22:58:19.352Z,32.6
2019-01-20T23:00:19.007Z,31.8
2019-01-20T23:02:18.654Z,31.2
2019-01-20T23:04:19.293Z,31.8
2019-01-20T23:06:19.127Z,34.9
2019-01-20T23:08:18.942Z,25.9
2019-01-20T23:10:19.068Z,32.4
2019-01-20T23:12:18.704Z,31.5
2019-01-20T23:14:19.363Z,33.2
2019-01-20T23:16:18.736Z,28.1
2019-01-20T23:18:19.462Z,38.7
2019-01-20T23:20:19.105Z,27.3
2019-01-20T23:22:18.746Z,23.1
2019-01-20T23:24:19.374Z,27
2019-01-20T23:26:19.512Z,25.5
2019-01-20T23:28:19.178Z,37.1
2019-01-20T23:30:18.839Z,28.5
2019-01-20T23:32:19.504Z,27.2
2019-01-20T23:34:19.156Z,27.3
2019-01-20T23:36:19.159Z,26.8
2019-01-20T23:38:18.806Z,25.9
2019-01-20T23:40:18.940Z,27.7
2019-01-20T23:42:18.587Z,25
2019-01-20T23:44:19.251Z,22.8
2019-01-20T23:46:18.713Z,30.3
2019-01-20T23:48:19.372Z,29.3
2019-01-20T23:50:19.100Z,25.3
2019-01-20T23:52:18.731Z,22
2019-01-20T23:54:19.375Z,33.4
2019-01-20T23:56:18.756Z,27.9
2019-01-20T23:58:19.396Z,27.5
